Aérodrome :
LOGIN :

S'inscrire | Disclaimer

   EN    FR    IT 

 










Légende :    VFR   VFR Marginal   IFR   IFR Intensif   IFR Très Intensif
Visi : 
Plafond : 
>= 8 km
>= 3000ft
5 à 8 km
1000 à 3000 ft
1500m à 5 km
500 à 1000 ft
800 à 1500m
200 à 500 ft
< 800m
< 200 ft
Symboles :   Orages  Brouillard  Fortes neiges  Fortes précipitations  Vent > 20 kt
SIGMETs :   Divers  Orages  Givrage  Turbulence  Onde Orograph.  Cendres Volcan.






- Altitude de l'aérodrome : 100 ft


EBDT - Schaffen

DERNIER METAR :
  • 271125Z AUTO 10008KT 9999 RA FEW006/// BKN009/// BKN011/// 02/02 Q0994 GRN

METARs EXPIRÉS :
  • 271055Z AUTO 14010KT 9999 -RA SCT009/// OVC011/// 03/02 Q0995 GRN
  • 271025Z AUTO 14009KT 9999 -RA SCT010/// BKN015/// OVC033/// 03/02 Q0996 GRN
  • 270955Z AUTO 15009KT 9999 -RA SCT010/// BKN014/// OVC035/// 03/02 Q0997 GRN
  • 270925Z AUTO 16010KT 9999 -RA SCT010/// BKN013/// BKN016/// 03/02 Q0998 GRN
  • 270855Z AUTO 16010KT 8000 -RA SCT010/// OVC045/// 03/02 Q0999 GRN
  • 270848Z AUTO 16009KT 9999 -RA FEW010/// SCT038/// BKN046/// 03/02 Q0999 BLU

Prévision TAF périmée.



MET'MAP, la Météo Aéronautique d'un coup d'oeil ! - Copyright ORBIFLY Décembre 2007 - Disclaimer

ORBIFLY MET'MAP TEAM :

Programmation & Développement : Alexandra Zaïnal
Sur une idée originale de : Baudouin d'Aumeries
Assistance à la programmation : Marc-Olivier Méhu
Soutien technique & logistique : Manuel Goepfert

Contact : metmap@orbifly.com




SOURCES & CREDITS :

   NOAA